Date,TemperatureHighF,TemperatureAvgF,TemperatureLowF,DewpointHighF,DewpointAvgF,DewpointLowF,HumidityHigh,HumidityAvg,HumidityLow,PressureMaxIn,PressureMinIn,WindSpeedMaxMPH,WindSpeedAvgMPH,GustSpeedMaxMPH,PrecipitationSumIn
2013-2-1,65,50,36,-100,-100,-100,0,0,100,0.00,40.00,0,-999,0,0.00
2013-2-2,66,54,43,-100,-100,-100,0,0,100,0.00,40.00,0,-999,0,0.00
2013-2-3,63,54,43,-100,-100,-100,0,0,100,0.00,40.00,0,-999,0,0.00
2013-2-4,67,54,41,-100,-100,-100,0,0,100,0.00,40.00,0,-999,0,0.00
2013-2-5,72,56,40,-100,-100,-100,0,0,100,0.00,40.00,0,-999,0,0.00
2013-2-6,62,50,40,-100,-100,-100,0,0,100,0.00,40.00,0,-999,0,0.00
2013-2-7,54,45,32,-100,-100,-100,0,0,100,0.00,40.00,0,-999,0,0.00
2013-2-8,51,44,40,-100,-100,-100,0,0,100,0.00,40.00,0,-999,0,0.00
2013-2-9,55,46,35,-100,-100,-100,0,0,100,0.00,40.00,0,-999,0,0.00
2013-2-10,58,46,28,-100,-100,-100,0,0,100,0.00,40.00,0,-999,0,0.00
2013-2-11,62,46,32,-100,-100,-100,0,0,100,0.00,40.00,0,-999,0,0.00
2013-2-12,67,53,36,-100,-100,-100,0,0,100,0.00,40.00,0,-999,0,0.00
2013-2-13,64,50,34,-100,-100,-100,0,0,100,0.00,40.00,0,-999,0,0.00
2013-2-14,69,54,35,-100,-100,-100,0,0,100,0.00,40.00,0,-999,0,0.00
2013-2-15,76,63,36,-100,-100,-100,0,0,100,0.00,40.00,0,-999,0,0.00
2013-2-16,75,56,36,-100,-100,-100,0,0,100,0.00,40.00,0,-999,0,0.00
2013-2-17,69,53,36,-100,-100,-100,0,0,100,0.00,40.00,0,-999,0,0.00
2013-2-18,69,52,39,-100,-100,-100,0,0,100,0.00,40.00,0,-999,0,0.00
2013-2-19,56,47,36,-100,-100,-100,0,0,100,0.00,40.00,0,-999,0,0.00
2013-2-20,48,40,35,-100,-100,-100,0,0,100,0.00,40.00,0,-999,0,0.00
2013-2-21,59,47,35,-100,-100,-100,0,0,100,0.00,40.00,0,-999,0,0.00
2013-2-22,62,49,33,-100,-100,-100,0,0,100,0.00,40.00,0,-999,0,0.00
2013-2-23,63,49,35,-100,-100,-100,0,0,100,0.00,40.00,0,-999,0,0.00
2013-2-24,59,44,36,-100,-100,-100,0,0,100,0.00,40.00,0,-999,0,0.00
2013-2-25,65,46,35,-100,-100,-100,0,0,100,0.00,40.00,0,-999,0,0.00
2013-2-26,64,50,34,-100,-100,-100,0,0,100,0.00,40.00,0,-999,0,0.00
2013-2-27,70,50,37,-100,-100,-100,0,0,100,0.00,40.00,0,-999,0,0.00
2013-2-28,70,56,39,-100,-100,-100,0,0,100,0.00,40.00,0,-999,0,0.00